sensor_id;sensor_type;location;lat;lon;timestamp;P1;durP1;ratioP1;P2;durP2;ratioP2
10651;SDS011;5374;42.742;23.266;2023-03-12T00:02:37;5.33;;;3.30;;
10651;SDS011;5374;42.742;23.266;2023-03-12T00:05:25;6.83;;;3.50;;
10651;SDS011;5374;42.742;23.266;2023-03-12T00:08:12;5.60;;;3.53;;
10651;SDS011;5374;42.742;23.266;2023-03-12T00:10:59;4.67;;;3.27;;
10651;SDS011;5374;42.742;23.266;2023-03-12T00:13:51;4.37;;;3.50;;
10651;SDS011;5374;42.742;23.266;2023-03-12T00:16:40;7.67;;;3.87;;
10651;SDS011;5374;42.742;23.266;2023-03-12T00:19:28;4.17;;;3.57;;
10651;SDS011;5374;42.742;23.266;2023-03-12T00:22:15;9.90;;;4.20;;
10651;SDS011;5374;42.742;23.266;2023-03-12T00:25:03;8.00;;;4.00;;
10651;SDS011;5374;42.742;23.266;2023-03-12T00:27:51;6.67;;;4.27;;
10651;SDS011;5374;42.742;23.266;2023-03-12T00:30:38;12.07;;;7.03;;
10651;SDS011;5374;42.742;23.266;2023-03-12T00:33:28;5.43;;;4.00;;
10651;SDS011;5374;42.742;23.266;2023-03-12T00:36:16;5.40;;;3.47;;
10651;SDS011;5374;42.742;23.266;2023-03-12T00:39:04;6.73;;;4.07;;
10651;SDS011;5374;42.742;23.266;2023-03-12T00:41:51;6.20;;;4.17;;
10651;SDS011;5374;42.742;23.266;2023-03-12T00:44:39;7.33;;;5.00;;
10651;SDS011;5374;42.742;23.266;2023-03-12T00:47:27;7.37;;;4.40;;
10651;SDS011;5374;42.742;23.266;2023-03-12T00:50:16;10.03;;;4.60;;
10651;SDS011;5374;42.742;23.266;2023-03-12T00:53:03;5.20;;;4.60;;
10651;SDS011;5374;42.742;23.266;2023-03-12T00:55:50;7.17;;;4.50;;
10651;SDS011;5374;42.742;23.266;2023-03-12T00:58:37;6.67;;;4.13;;
10651;SDS011;5374;42.742;23.266;2023-03-12T01:01:27;7.60;;;5.30;;
10651;SDS011;5374;42.742;23.266;2023-03-12T01:04:14;7.73;;;5.80;;
10651;SDS011;5374;42.742;23.266;2023-03-12T01:07:04;7.07;;;4.47;;
10651;SDS011;5374;42.742;23.266;2023-03-12T01:09:51;6.07;;;4.97;;
10651;SDS011;5374;42.742;23.266;2023-03-12T01:12:38;6.20;;;4.60;;
10651;SDS011;5374;42.742;23.266;2023-03-12T01:15:25;9.03;;;5.37;;
10651;SDS011;5374;42.742;23.266;2023-03-12T01:18:13;13.10;;;7.10;;
10651;SDS011;5374;42.742;23.266;2023-03-12T01:21:00;6.73;;;5.23;;
10651;SDS011;5374;42.742;23.266;2023-03-12T01:23:49;7.03;;;4.80;;
10651;SDS011;5374;42.742;23.266;2023-03-12T01:26:36;7.00;;;4.90;;
10651;SDS011;5374;42.742;23.266;2023-03-12T01:29:23;6.50;;;4.80;;
10651;SDS011;5374;42.742;23.266;2023-03-12T01:32:10;5.53;;;4.10;;
10651;SDS011;5374;42.742;23.266;2023-03-12T01:34:58;6.33;;;4.63;;
10651;SDS011;5374;42.742;23.266;2023-03-12T01:37:45;5.57;;;4.10;;
10651;SDS011;5374;42.742;23.266;2023-03-12T01:40:34;4.90;;;4.40;;
10651;SDS011;5374;42.742;23.266;2023-03-12T01:43:24;5.97;;;4.60;;
10651;SDS011;5374;42.742;23.266;2023-03-12T01:46:27;9.50;;;4.77;;
10651;SDS011;5374;42.742;23.266;2023-03-12T01:49:16;5.73;;;4.90;;
10651;SDS011;5374;42.742;23.266;2023-03-12T01:52:08;8.57;;;5.00;;
10651;SDS011;5374;42.742;23.266;2023-03-12T01:55:00;5.27;;;4.50;;
10651;SDS011;5374;42.742;23.266;2023-03-12T01:57:53;8.37;;;5.43;;
10651;SDS011;5374;42.742;23.266;2023-03-12T02:00:43;8.70;;;5.50;;
10651;SDS011;5374;42.742;23.266;2023-03-12T02:03:31;6.20;;;4.70;;
10651;SDS011;5374;42.742;23.266;2023-03-12T02:06:22;5.83;;;5.23;;
10651;SDS011;5374;42.742;23.266;2023-03-12T02:09:12;7.07;;;4.93;;
10651;SDS011;5374;42.742;23.266;2023-03-12T02:11:59;7.93;;;5.30;;
10651;SDS011;5374;42.742;23.266;2023-03-12T02:14:48;6.10;;;5.40;;
10651;SDS011;5374;42.742;23.266;2023-03-12T02:17:36;7.67;;;4.80;;
10651;SDS011;5374;42.742;23.266;2023-03-12T02:20:26;6.13;;;5.40;;
10651;SDS011;5374;42.742;23.266;2023-03-12T02:23:18;5.70;;;4.57;;
10651;SDS011;5374;42.742;23.266;2023-03-12T02:26:13;6.60;;;5.10;;
10651;SDS011;5374;42.742;23.266;2023-03-12T02:29:03;4.80;;;4.27;;
10651;SDS011;5374;42.742;23.266;2023-03-12T02:31:51;4.67;;;4.27;;
10651;SDS011;5374;42.742;23.266;2023-03-12T02:34:42;5.23;;;4.67;;
10651;SDS011;5374;42.742;23.266;2023-03-12T02:37:29;7.50;;;5.13;;
10651;SDS011;5374;42.742;23.266;2023-03-12T02:40:17;5.00;;;4.50;;
10651;SDS011;5374;42.742;23.266;2023-03-12T02:43:19;5.30;;;4.80;;
10651;SDS011;5374;42.742;23.266;2023-03-12T02:46:08;7.90;;;4.10;;
10651;SDS011;5374;42.742;23.266;2023-03-12T02:48:55;5.73;;;4.00;;
10651;SDS011;5374;42.742;23.266;2023-03-12T02:51:43;5.47;;;4.50;;
10651;SDS011;5374;42.742;23.266;2023-03-12T02:54:31;12.10;;;4.57;;
10651;SDS011;5374;42.742;23.266;2023-03-12T02:57:21;4.77;;;4.20;;
10651;SDS011;5374;42.742;23.266;2023-03-12T03:00:13;6.73;;;4.40;;
10651;SDS011;5374;42.742;23.266;2023-03-12T03:03:01;11.70;;;6.70;;
10651;SDS011;5374;42.742;23.266;2023-03-12T03:05:48;7.77;;;5.03;;
10651;SDS011;5374;42.742;23.266;2023-03-12T03:08:36;6.63;;;4.50;;
10651;SDS011;5374;42.742;23.266;2023-03-12T03:11:23;5.10;;;4.37;;
10651;SDS011;5374;42.742;23.266;2023-03-12T03:14:10;4.97;;;3.97;;
10651;SDS011;5374;42.742;23.266;2023-03-12T03:16:59;5.17;;;4.00;;
10651;SDS011;5374;42.742;23.266;2023-03-12T03:19:46;4.97;;;3.80;;
10651;SDS011;5374;42.742;23.266;2023-03-12T03:22:33;4.83;;;4.07;;
10651;SDS011;5374;42.742;23.266;2023-03-12T03:25:21;5.63;;;3.90;;
10651;SDS011;5374;42.742;23.266;2023-03-12T03:28:08;8.07;;;4.40;;
10651;SDS011;5374;42.742;23.266;2023-03-12T03:30:56;4.30;;;3.90;;
10651;SDS011;5374;42.742;23.266;2023-03-12T03:33:47;4.93;;;4.13;;
10651;SDS011;5374;42.742;23.266;2023-03-12T03:36:34;5.13;;;4.00;;
10651;SDS011;5374;42.742;23.266;2023-03-12T03:39:21;5.60;;;4.40;;
10651;SDS011;5374;42.742;23.266;2023-03-12T03:42:13;7.47;;;4.70;;
10651;SDS011;5374;42.742;23.266;2023-03-12T03:45:00;5.00;;;4.20;;
10651;SDS011;5374;42.742;23.266;2023-03-12T03:47:47;10.13;;;4.97;;
10651;SDS011;5374;42.742;23.266;2023-03-12T03:50:36;13.77;;;6.33;;
10651;SDS011;5374;42.742;23.266;2023-03-12T03:53:26;6.83;;;3.93;;
10651;SDS011;5374;42.742;23.266;2023-03-12T03:56:14;6.00;;;4.00;;
10651;SDS011;5374;42.742;23.266;2023-03-12T03:59:02;6.77;;;4.20;;
10651;SDS011;5374;42.742;23.266;2023-03-12T04:01:49;4.17;;;3.77;;
10651;SDS011;5374;42.742;23.266;2023-03-12T04:04:37;6.23;;;5.20;;
10651;SDS011;5374;42.742;23.266;2023-03-12T04:07:26;5.03;;;4.30;;
10651;SDS011;5374;42.742;23.266;2023-03-12T04:10:13;5.47;;;4.20;;
10651;SDS011;5374;42.742;23.266;2023-03-12T04:13:01;5.13;;;4.00;;
10651;SDS011;5374;42.742;23.266;2023-03-12T04:15:48;7.37;;;4.37;;
10651;SDS011;5374;42.742;23.266;2023-03-12T04:18:37;4.63;;;4.07;;
10651;SDS011;5374;42.742;23.266;2023-03-12T04:21:24;3.93;;;3.47;;
10651;SDS011;5374;42.742;23.266;2023-03-12T04:24:13;6.50;;;4.40;;
10651;SDS011;5374;42.742;23.266;2023-03-12T04:27:03;6.03;;;3.90;;
10651;SDS011;5374;42.742;23.266;2023-03-12T04:29:50;6.20;;;4.80;;
10651;SDS011;5374;42.742;23.266;2023-03-12T04:32:37;5.13;;;3.83;;
10651;SDS011;5374;42.742;23.266;2023-03-12T04:35:24;4.77;;;3.50;;
10651;SDS011;5374;42.742;23.266;2023-03-12T04:38:12;7.03;;;4.07;;
10651;SDS011;5374;42.742;23.266;2023-03-12T04:41:01;4.97;;;3.00;;
10651;SDS011;5374;42.742;23.266;2023-03-12T04:43:50;5.80;;;3.63;;
10651;SDS011;5374;42.742;23.266;2023-03-12T04:46:37;13.13;;;6.50;;
10651;SDS011;5374;42.742;23.266;2023-03-12T04:49:24;5.50;;;3.40;;
10651;SDS011;5374;42.742;23.266;2023-03-12T04:52:12;4.77;;;3.47;;
10651;SDS011;5374;42.742;23.266;2023-03-12T04:54:59;3.97;;;3.40;;
10651;SDS011;5374;42.742;23.266;2023-03-12T04:57:47;4.50;;;3.60;;
10651;SDS011;5374;42.742;23.266;2023-03-12T05:00:35;3.63;;;3.07;;
10651;SDS011;5374;42.742;23.266;2023-03-12T05:03:22;6.13;;;3.13;;
10651;SDS011;5374;42.742;23.266;2023-03-12T05:06:09;4.60;;;3.50;;
10651;SDS011;5374;42.742;23.266;2023-03-12T05:08:56;4.57;;;3.30;;
10651;SDS011;5374;42.742;23.266;2023-03-12T05:11:43;4.10;;;3.37;;
10651;SDS011;5374;42.742;23.266;2023-03-12T05:14:32;3.97;;;3.07;;
10651;SDS011;5374;42.742;23.266;2023-03-12T05:17:19;4.27;;;3.43;;
10651;SDS011;5374;42.742;23.266;2023-03-12T05:20:07;8.40;;;3.30;;
10651;SDS011;5374;42.742;23.266;2023-03-12T05:22:55;6.10;;;3.00;;
10651;SDS011;5374;42.742;23.266;2023-03-12T05:25:42;6.77;;;3.33;;
10651;SDS011;5374;42.742;23.266;2023-03-12T05:28:29;4.33;;;3.47;;
10651;SDS011;5374;42.742;23.266;2023-03-12T05:31:18;8.07;;;4.10;;
10651;SDS011;5374;42.742;23.266;2023-03-12T05:34:06;6.27;;;3.70;;
10651;SDS011;5374;42.742;23.266;2023-03-12T05:36:53;5.00;;;3.83;;
10651;SDS011;5374;42.742;23.266;2023-03-12T05:39:40;4.60;;;3.00;;
10651;SDS011;5374;42.742;23.266;2023-03-12T05:42:31;3.43;;;2.90;;
10651;SDS011;5374;42.742;23.266;2023-03-12T05:45:18;4.17;;;3.07;;
10651;SDS011;5374;42.742;23.266;2023-03-12T05:48:06;5.00;;;3.37;;
10651;SDS011;5374;42.742;23.266;2023-03-12T05:50:54;3.47;;;3.17;;
10651;SDS011;5374;42.742;23.266;2023-03-12T05:53:41;4.63;;;3.90;;
10651;SDS011;5374;42.742;23.266;2023-03-12T05:56:28;3.30;;;2.93;;
10651;SDS011;5374;42.742;23.266;2023-03-12T05:59:15;3.33;;;2.53;;
10651;SDS011;5374;42.742;23.266;2023-03-12T06:02:02;4.70;;;3.67;;
10651;SDS011;5374;42.742;23.266;2023-03-12T06:04:51;7.47;;;6.13;;
10651;SDS011;5374;42.742;23.266;2023-03-12T06:07:38;16.30;;;14.60;;
10651;SDS011;5374;42.742;23.266;2023-03-12T06:10:26;8.00;;;7.20;;
10651;SDS011;5374;42.742;23.266;2023-03-12T06:13:14;5.93;;;5.43;;
10651;SDS011;5374;42.742;23.266;2023-03-12T06:16:01;3.60;;;2.87;;
10651;SDS011;5374;42.742;23.266;2023-03-12T06:18:51;2.80;;;2.60;;
10651;SDS011;5374;42.742;23.266;2023-03-12T06:21:41;3.83;;;3.20;;
10651;SDS011;5374;42.742;23.266;2023-03-12T06:24:29;6.23;;;3.37;;
10651;SDS011;5374;42.742;23.266;2023-03-12T06:27:16;3.13;;;2.83;;
10651;SDS011;5374;42.742;23.266;2023-03-12T06:30:04;3.30;;;3.00;;
10651;SDS011;5374;42.742;23.266;2023-03-12T06:32:52;2.90;;;2.40;;
10651;SDS011;5374;42.742;23.266;2023-03-12T06:35:40;5.87;;;4.27;;
10651;SDS011;5374;42.742;23.266;2023-03-12T06:38:29;3.67;;;3.37;;
10651;SDS011;5374;42.742;23.266;2023-03-12T06:41:17;3.77;;;2.70;;
10651;SDS011;5374;42.742;23.266;2023-03-12T06:44:05;4.70;;;3.90;;
10651;SDS011;5374;42.742;23.266;2023-03-12T06:46:52;4.93;;;3.90;;
10651;SDS011;5374;42.742;23.266;2023-03-12T06:49:39;5.37;;;3.90;;
10651;SDS011;5374;42.742;23.266;2023-03-12T06:52:26;3.63;;;3.20;;
10651;SDS011;5374;42.742;23.266;2023-03-12T06:55:16;3.77;;;2.60;;
10651;SDS011;5374;42.742;23.266;2023-03-12T06:58:03;2.47;;;2.23;;
10651;SDS011;5374;42.742;23.266;2023-03-12T07:00:50;2.20;;;2.00;;
10651;SDS011;5374;42.742;23.266;2023-03-12T07:03:38;3.27;;;2.67;;
10651;SDS011;5374;42.742;23.266;2023-03-12T07:06:25;3.10;;;2.80;;
10651;SDS011;5374;42.742;23.266;2023-03-12T07:09:13;2.90;;;2.60;;
10651;SDS011;5374;42.742;23.266;2023-03-12T07:12:02;4.13;;;3.23;;
10651;SDS011;5374;42.742;23.266;2023-03-12T07:14:49;7.10;;;4.40;;
10651;SDS011;5374;42.742;23.266;2023-03-12T07:17:37;5.93;;;3.97;;
10651;SDS011;5374;42.742;23.266;2023-03-12T07:20:24;8.37;;;5.33;;
10651;SDS011;5374;42.742;23.266;2023-03-12T07:23:11;4.03;;;3.00;;
10651;SDS011;5374;42.742;23.266;2023-03-12T07:25:58;4.00;;;2.90;;
10651;SDS011;5374;42.742;23.266;2023-03-12T07:28:47;3.63;;;3.00;;
10651;SDS011;5374;42.742;23.266;2023-03-12T07:31:35;2.80;;;2.50;;
10651;SDS011;5374;42.742;23.266;2023-03-12T07:34:22;4.80;;;3.40;;
10651;SDS011;5374;42.742;23.266;2023-03-12T07:37:09;5.23;;;3.23;;
10651;SDS011;5374;42.742;23.266;2023-03-12T07:39:56;3.13;;;2.57;;
10651;SDS011;5374;42.742;23.266;2023-03-12T07:42:44;4.30;;;3.00;;
10651;SDS011;5374;42.742;23.266;2023-03-12T07:45:32;5.20;;;4.33;;
10651;SDS011;5374;42.742;23.266;2023-03-12T07:48:20;4.03;;;2.80;;
10651;SDS011;5374;42.742;23.266;2023-03-12T07:51:07;3.23;;;2.60;;
10651;SDS011;5374;42.742;23.266;2023-03-12T07:53:54;3.03;;;2.50;;
10651;SDS011;5374;42.742;23.266;2023-03-12T07:56:42;2.53;;;2.33;;
10651;SDS011;5374;42.742;23.266;2023-03-12T07:59:29;3.93;;;2.83;;
10651;SDS011;5374;42.742;23.266;2023-03-12T08:02:17;5.27;;;3.40;;
10651;SDS011;5374;42.742;23.266;2023-03-12T08:05:05;3.57;;;2.50;;
10651;SDS011;5374;42.742;23.266;2023-03-12T08:07:53;4.70;;;2.93;;
10651;SDS011;5374;42.742;23.266;2023-03-12T08:10:41;4.23;;;2.60;;
10651;SDS011;5374;42.742;23.266;2023-03-12T08:13:29;3.20;;;2.53;;
10651;SDS011;5374;42.742;23.266;2023-03-12T08:16:16;3.77;;;2.70;;
10651;SDS011;5374;42.742;23.266;2023-03-12T08:19:06;3.83;;;2.77;;
10651;SDS011;5374;42.742;23.266;2023-03-12T08:21:54;3.73;;;2.80;;
10651;SDS011;5374;42.742;23.266;2023-03-12T08:24:42;3.43;;;2.50;;
10651;SDS011;5374;42.742;23.266;2023-03-12T08:27:30;11.53;;;4.33;;
10651;SDS011;5374;42.742;23.266;2023-03-12T08:30:18;3.30;;;2.53;;
10651;SDS011;5374;42.742;23.266;2023-03-12T08:33:05;2.77;;;2.30;;
10651;SDS011;5374;42.742;23.266;2023-03-12T08:35:54;4.10;;;2.90;;
10651;SDS011;5374;42.742;23.266;2023-03-12T08:38:41;4.33;;;2.60;;
10651;SDS011;5374;42.742;23.266;2023-03-12T08:41:28;3.03;;;2.50;;
10651;SDS011;5374;42.742;23.266;2023-03-12T08:44:15;4.23;;;2.40;;
10651;SDS011;5374;42.742;23.266;2023-03-12T08:47:03;3.90;;;3.07;;
10651;SDS011;5374;42.742;23.266;2023-03-12T08:49:50;2.93;;;2.53;;
10651;SDS011;5374;42.742;23.266;2023-03-12T08:52:38;3.47;;;2.60;;
10651;SDS011;5374;42.742;23.266;2023-03-12T08:55:26;4.03;;;2.50;;
10651;SDS011;5374;42.742;23.266;2023-03-12T08:58:13;5.10;;;2.97;;
10651;SDS011;5374;42.742;23.266;2023-03-12T09:01:00;4.50;;;3.20;;
10651;SDS011;5374;42.742;23.266;2023-03-12T09:03:47;2.73;;;2.30;;
10651;SDS011;5374;42.742;23.266;2023-03-12T09:06:37;3.63;;;2.53;;
10651;SDS011;5374;42.742;23.266;2023-03-12T09:09:25;4.77;;;3.03;;
10651;SDS011;5374;42.742;23.266;2023-03-12T09:12:12;6.43;;;3.20;;
10651;SDS011;5374;42.742;23.266;2023-03-12T09:14:59;5.33;;;2.80;;
10651;SDS011;5374;42.742;23.266;2023-03-12T09:17:47;4.43;;;3.03;;
10651;SDS011;5374;42.742;23.266;2023-03-12T09:20:35;10.00;;;5.17;;
10651;SDS011;5374;42.742;23.266;2023-03-12T09:23:22;5.27;;;3.60;;
10651;SDS011;5374;42.742;23.266;2023-03-12T09:26:11;6.57;;;4.10;;
10651;SDS011;5374;42.742;23.266;2023-03-12T09:28:59;4.77;;;3.40;;
10651;SDS011;5374;42.742;23.266;2023-03-12T09:31:46;6.27;;;3.90;;
10651;SDS011;5374;42.742;23.266;2023-03-12T09:34:33;5.23;;;3.60;;
10651;SDS011;5374;42.742;23.266;2023-03-12T09:37:20;5.07;;;3.20;;
10651;SDS011;5374;42.742;23.266;2023-03-12T09:40:10;6.97;;;3.00;;
10651;SDS011;5374;42.742;23.266;2023-03-12T09:43:05;4.97;;;3.10;;
10651;SDS011;5374;42.742;23.266;2023-03-12T09:45:56;4.53;;;3.20;;
10651;SDS011;5374;42.742;23.266;2023-03-12T09:48:45;7.73;;;3.83;;
10651;SDS011;5374;42.742;23.266;2023-03-12T09:51:35;3.00;;;2.57;;
10651;SDS011;5374;42.742;23.266;2023-03-12T09:54:27;3.27;;;2.80;;
10651;SDS011;5374;42.742;23.266;2023-03-12T09:57:20;7.13;;;3.30;;
10651;SDS011;5374;42.742;23.266;2023-03-12T10:00:13;4.50;;;3.27;;
10651;SDS011;5374;42.742;23.266;2023-03-12T10:03:17;5.00;;;2.93;;
10651;SDS011;5374;42.742;23.266;2023-03-12T10:06:31;4.73;;;2.93;;
10651;SDS011;5374;42.742;23.266;2023-03-12T10:09:28;3.50;;;2.57;;
10651;SDS011;5374;42.742;23.266;2023-03-12T10:12:24;4.47;;;2.40;;
10651;SDS011;5374;42.742;23.266;2023-03-12T10:15:26;3.47;;;2.80;;
10651;SDS011;5374;42.742;23.266;2023-03-12T10:18:25;3.77;;;2.80;;
10651;SDS011;5374;42.742;23.266;2023-03-12T10:21:21;5.27;;;2.47;;
10651;SDS011;5374;42.742;23.266;2023-03-12T10:24:18;4.07;;;2.53;;
10651;SDS011;5374;42.742;23.266;2023-03-12T10:27:16;4.03;;;2.80;;
10651;SDS011;5374;42.742;23.266;2023-03-12T10:30:12;4.33;;;3.20;;
10651;SDS011;5374;42.742;23.266;2023-03-12T10:33:03;6.27;;;3.20;;
10651;SDS011;5374;42.742;23.266;2023-03-12T10:35:59;4.03;;;2.90;;
10651;SDS011;5374;42.742;23.266;2023-03-12T10:38:46;5.43;;;3.10;;
10651;SDS011;5374;42.742;23.266;2023-03-12T10:41:34;8.37;;;4.63;;
10651;SDS011;5374;42.742;23.266;2023-03-12T10:44:22;4.80;;;4.10;;
10651;SDS011;5374;42.742;23.266;2023-03-12T10:47:17;9.10;;;4.00;;
10651;SDS011;5374;42.742;23.266;2023-03-12T10:50:16;6.77;;;3.20;;
10651;SDS011;5374;42.742;23.266;2023-03-12T10:53:11;3.53;;;2.43;;
10651;SDS011;5374;42.742;23.266;2023-03-12T10:56:06;3.10;;;2.40;;
10651;SDS011;5374;42.742;23.266;2023-03-12T10:58:54;6.77;;;3.30;;
10651;SDS011;5374;42.742;23.266;2023-03-12T11:01:45;9.30;;;2.60;;
10651;SDS011;5374;42.742;23.266;2023-03-12T11:04:35;6.37;;;2.80;;
10651;SDS011;5374;42.742;23.266;2023-03-12T11:07:24;4.70;;;2.80;;
10651;SDS011;5374;42.742;23.266;2023-03-12T11:10:20;3.60;;;2.33;;
10651;SDS011;5374;42.742;23.266;2023-03-12T11:13:23;3.83;;;2.80;;
10651;SDS011;5374;42.742;23.266;2023-03-12T11:16:23;2.97;;;2.53;;
10651;SDS011;5374;42.742;23.266;2023-03-12T11:19:13;2.50;;;2.20;;
10651;SDS011;5374;42.742;23.266;2023-03-12T11:22:11;5.93;;;4.00;;
10651;SDS011;5374;42.742;23.266;2023-03-12T11:25:03;2.40;;;2.10;;
10651;SDS011;5374;42.742;23.266;2023-03-12T11:27:53;5.50;;;4.37;;
10651;SDS011;5374;42.742;23.266;2023-03-12T11:30:42;4.10;;;2.73;;
10651;SDS011;5374;42.742;23.266;2023-03-12T11:33:30;3.77;;;2.47;;
10651;SDS011;5374;42.742;23.266;2023-03-12T11:36:21;3.43;;;1.93;;
10651;SDS011;5374;42.742;23.266;2023-03-12T11:39:28;4.10;;;3.13;;
10651;SDS011;5374;42.742;23.266;2023-03-12T11:42:30;6.13;;;2.70;;
10651;SDS011;5374;42.742;23.266;2023-03-12T11:45:27;2.93;;;2.30;;
10651;SDS011;5374;42.742;23.266;2023-03-12T11:48:24;2.97;;;2.20;;
10651;SDS011;5374;42.742;23.266;2023-03-12T11:51:18;3.30;;;2.40;;
10651;SDS011;5374;42.742;23.266;2023-03-12T11:57:39;4.43;;;3.60;;
10651;SDS011;5374;42.742;23.266;2023-03-12T12:00:36;5.10;;;2.80;;
10651;SDS011;5374;42.742;23.266;2023-03-12T12:03:43;4.00;;;2.87;;
10651;SDS011;5374;42.742;23.266;2023-03-12T12:06:52;3.23;;;2.80;;
10651;SDS011;5374;42.742;23.266;2023-03-12T12:09:48;3.27;;;2.10;;
10651;SDS011;5374;42.742;23.266;2023-03-12T12:12:47;4.03;;;2.10;;
10651;SDS011;5374;42.742;23.266;2023-03-12T12:15:44;3.07;;;2.47;;
10651;SDS011;5374;42.742;23.266;2023-03-12T12:18:47;2.30;;;2.10;;
10651;SDS011;5374;42.742;23.266;2023-03-12T12:21:49;4.03;;;2.93;;
10651;SDS011;5374;42.742;23.266;2023-03-12T12:24:52;5.23;;;4.03;;
10651;SDS011;5374;42.742;23.266;2023-03-12T12:31:00;2.93;;;2.10;;
10651;SDS011;5374;42.742;23.266;2023-03-12T12:34:05;4.90;;;3.80;;
10651;SDS011;5374;42.742;23.266;2023-03-12T12:37:18;3.93;;;3.10;;
10651;SDS011;5374;42.742;23.266;2023-03-12T12:40:13;3.50;;;2.60;;
10651;SDS011;5374;42.742;23.266;2023-03-12T12:43:10;7.90;;;4.80;;
10651;SDS011;5374;42.742;23.266;2023-03-12T12:46:10;3.03;;;2.50;;
10651;SDS011;5374;42.742;23.266;2023-03-12T12:49:02;2.47;;;2.00;;
10651;SDS011;5374;42.742;23.266;2023-03-12T12:51:56;4.23;;;2.37;;
10651;SDS011;5374;42.742;23.266;2023-03-12T12:54:49;4.73;;;2.40;;
10651;SDS011;5374;42.742;23.266;2023-03-12T12:57:43;4.33;;;2.30;;
10651;SDS011;5374;42.742;23.266;2023-03-12T13:00:38;2.67;;;2.20;;
10651;SDS011;5374;42.742;23.266;2023-03-12T13:03:32;6.63;;;3.10;;
10651;SDS011;5374;42.742;23.266;2023-03-12T13:06:19;5.83;;;2.97;;
10651;SDS011;5374;42.742;23.266;2023-03-12T13:09:13;5.50;;;3.90;;
10651;SDS011;5374;42.742;23.266;2023-03-12T13:12:14;17.30;;;13.37;;
10651;SDS011;5374;42.742;23.266;2023-03-12T13:18:24;6.23;;;4.27;;
10651;SDS011;5374;42.742;23.266;2023-03-12T13:21:17;14.27;;;9.03;;
10651;SDS011;5374;42.742;23.266;2023-03-12T13:24:13;5.00;;;2.73;;
10651;SDS011;5374;42.742;23.266;2023-03-12T13:27:08;15.17;;;10.80;;
10651;SDS011;5374;42.742;23.266;2023-03-12T13:33:36;15.47;;;10.27;;
10651;SDS011;5374;42.742;23.266;2023-03-12T13:36:30;4.23;;;3.47;;
10651;SDS011;5374;42.742;23.266;2023-03-12T13:39:27;5.27;;;3.77;;
10651;SDS011;5374;42.742;23.266;2023-03-12T13:45:23;3.17;;;2.30;;
10651;SDS011;5374;42.742;23.266;2023-03-12T13:48:13;4.73;;;3.80;;
10651;SDS011;5374;42.742;23.266;2023-03-12T13:51:09;6.10;;;3.17;;
10651;SDS011;5374;42.742;23.266;2023-03-12T13:54:02;3.87;;;3.10;;
10651;SDS011;5374;42.742;23.266;2023-03-12T13:56:53;5.50;;;2.90;;
10651;SDS011;5374;42.742;23.266;2023-03-12T13:59:44;2.57;;;2.07;;
10651;SDS011;5374;42.742;23.266;2023-03-12T14:02:33;3.37;;;2.97;;
10651;SDS011;5374;42.742;23.266;2023-03-12T14:05:23;3.20;;;2.40;;
10651;SDS011;5374;42.742;23.266;2023-03-12T14:08:16;3.80;;;2.90;;
10651;SDS011;5374;42.742;23.266;2023-03-12T14:14:48;7.13;;;2.63;;
10651;SDS011;5374;42.742;23.266;2023-03-12T14:17:56;5.70;;;2.70;;
10651;SDS011;5374;42.742;23.266;2023-03-12T14:20:49;16.83;;;11.87;;
10651;SDS011;5374;42.742;23.266;2023-03-12T14:23:40;5.50;;;4.17;;
10651;SDS011;5374;42.742;23.266;2023-03-12T14:26:32;4.07;;;3.27;;
10651;SDS011;5374;42.742;23.266;2023-03-12T14:29:24;3.17;;;2.50;;
10651;SDS011;5374;42.742;23.266;2023-03-12T14:32:15;9.00;;;7.80;;
10651;SDS011;5374;42.742;23.266;2023-03-12T14:35:09;10.17;;;8.53;;
10651;SDS011;5374;42.742;23.266;2023-03-12T14:38:03;16.23;;;14.53;;
10651;SDS011;5374;42.742;23.266;2023-03-12T14:40:54;4.17;;;3.37;;
10651;SDS011;5374;42.742;23.266;2023-03-12T14:43:49;8.53;;;5.20;;
10651;SDS011;5374;42.742;23.266;2023-03-12T14:46:44;8.87;;;5.30;;
10651;SDS011;5374;42.742;23.266;2023-03-12T14:49:37;5.50;;;3.50;;
10651;SDS011;5374;42.742;23.266;2023-03-12T14:52:26;9.70;;;6.23;;
10651;SDS011;5374;42.742;23.266;2023-03-12T14:55:15;6.23;;;4.00;;
10651;SDS011;5374;42.742;23.266;2023-03-12T14:58:13;4.87;;;3.57;;
10651;SDS011;5374;42.742;23.266;2023-03-12T15:01:03;13.53;;;7.80;;
10651;SDS011;5374;42.742;23.266;2023-03-12T15:03:54;4.80;;;2.70;;
10651;SDS011;5374;42.742;23.266;2023-03-12T15:06:46;3.90;;;3.00;;
10651;SDS011;5374;42.742;23.266;2023-03-12T15:09:35;7.03;;;4.90;;
10651;SDS011;5374;42.742;23.266;2023-03-12T15:12:23;6.83;;;4.50;;
10651;SDS011;5374;42.742;23.266;2023-03-12T15:15:26;5.93;;;3.90;;
10651;SDS011;5374;42.742;23.266;2023-03-12T15:18:22;6.57;;;5.20;;
10651;SDS011;5374;42.742;23.266;2023-03-12T15:21:13;8.17;;;4.90;;
10651;SDS011;5374;42.742;23.266;2023-03-12T15:24:00;9.90;;;4.20;;
10651;SDS011;5374;42.742;23.266;2023-03-12T15:26:49;4.83;;;3.00;;
10651;SDS011;5374;42.742;23.266;2023-03-12T15:29:39;5.93;;;4.00;;
10651;SDS011;5374;42.742;23.266;2023-03-12T15:32:27;8.27;;;4.80;;
10651;SDS011;5374;42.742;23.266;2023-03-12T15:35:23;10.00;;;4.53;;
10651;SDS011;5374;42.742;23.266;2023-03-12T15:38:15;5.43;;;4.03;;
10651;SDS011;5374;42.742;23.266;2023-03-12T15:41:05;6.37;;;3.90;;
10651;SDS011;5374;42.742;23.266;2023-03-12T15:43:55;9.30;;;5.67;;
10651;SDS011;5374;42.742;23.266;2023-03-12T15:47:02;7.77;;;4.80;;
10651;SDS011;5374;42.742;23.266;2023-03-12T15:49:53;10.60;;;5.60;;
10651;SDS011;5374;42.742;23.266;2023-03-12T15:52:56;8.87;;;5.40;;
10651;SDS011;5374;42.742;23.266;2023-03-12T15:55:59;10.47;;;5.00;;
10651;SDS011;5374;42.742;23.266;2023-03-12T15:58:57;8.33;;;4.90;;
10651;SDS011;5374;42.742;23.266;2023-03-12T16:02:08;13.37;;;6.27;;
10651;SDS011;5374;42.742;23.266;2023-03-12T16:04:57;14.17;;;6.00;;
10651;SDS011;5374;42.742;23.266;2023-03-12T16:07:44;13.43;;;6.60;;
10651;SDS011;5374;42.742;23.266;2023-03-12T16:10:31;13.03;;;6.37;;
10651;SDS011;5374;42.742;23.266;2023-03-12T16:13:24;10.30;;;5.57;;
10651;SDS011;5374;42.742;23.266;2023-03-12T16:16:15;13.87;;;7.23;;
10651;SDS011;5374;42.742;23.266;2023-03-12T16:19:04;12.97;;;7.17;;
10651;SDS011;5374;42.742;23.266;2023-03-12T16:21:59;18.10;;;8.57;;
10651;SDS011;5374;42.742;23.266;2023-03-12T16:24:46;18.17;;;9.57;;
10651;SDS011;5374;42.742;23.266;2023-03-12T16:27:33;21.93;;;10.20;;
10651;SDS011;5374;42.742;23.266;2023-03-12T16:30:27;19.57;;;10.33;;
10651;SDS011;5374;42.742;23.266;2023-03-12T16:33:19;16.70;;;7.93;;
10651;SDS011;5374;42.742;23.266;2023-03-12T16:36:09;9.63;;;5.90;;
10651;SDS011;5374;42.742;23.266;2023-03-12T16:38:58;9.37;;;5.77;;
10651;SDS011;5374;42.742;23.266;2023-03-12T16:41:45;11.67;;;7.20;;
10651;SDS011;5374;42.742;23.266;2023-03-12T16:44:33;12.87;;;7.53;;
10651;SDS011;5374;42.742;23.266;2023-03-12T16:47:22;13.63;;;8.63;;
10651;SDS011;5374;42.742;23.266;2023-03-12T16:50:14;30.80;;;17.07;;
10651;SDS011;5374;42.742;23.266;2023-03-12T16:53:03;27.17;;;16.60;;
10651;SDS011;5374;42.742;23.266;2023-03-12T16:55:51;18.93;;;14.30;;
10651;SDS011;5374;42.742;23.266;2023-03-12T16:58:40;16.17;;;12.20;;
10651;SDS011;5374;42.742;23.266;2023-03-12T17:01:28;11.17;;;7.30;;
10651;SDS011;5374;42.742;23.266;2023-03-12T17:04:20;10.40;;;7.67;;
10651;SDS011;5374;42.742;23.266;2023-03-12T17:07:07;7.33;;;5.90;;
10651;SDS011;5374;42.742;23.266;2023-03-12T17:09:55;6.93;;;5.37;;
10651;SDS011;5374;42.742;23.266;2023-03-12T17:12:42;8.30;;;5.43;;
10651;SDS011;5374;42.742;23.266;2023-03-12T17:15:29;9.17;;;7.63;;
10651;SDS011;5374;42.742;23.266;2023-03-12T17:18:18;12.10;;;6.83;;
10651;SDS011;5374;42.742;23.266;2023-03-12T17:21:08;10.37;;;6.80;;
10651;SDS011;5374;42.742;23.266;2023-03-12T17:23:57;10.80;;;6.63;;
10651;SDS011;5374;42.742;23.266;2023-03-12T17:26:44;11.07;;;6.40;;